createdAt,value
2018-10-07T00:00:06.034Z,95658.59
2018-10-07T00:02:34.726Z,95655.58
2018-10-07T00:05:03.426Z,95652.91
2018-10-07T00:07:33.425Z,95657.13
2018-10-07T00:10:02.132Z,95655.80
2018-10-07T00:12:30.821Z,95650.75
2018-10-07T00:14:59.509Z,95647.78
2018-10-07T00:17:28.238Z,95643.27
2018-10-07T00:19:57.056Z,95643.78
2018-10-07T00:22:25.760Z,95632.27
2018-10-07T00:24:54.453Z,95627.75
2018-10-07T00:27:23.162Z,95628.05
2018-10-07T00:29:51.872Z,95619.52
2018-10-07T00:32:20.679Z,95616.03
2018-10-07T00:34:49.389Z,95611.84
2018-10-07T00:37:18.110Z,95611.84
2018-10-07T00:39:46.843Z,95600.83
2018-10-07T00:42:15.546Z,95595.48
2018-10-07T00:44:44.271Z,95589.63
2018-10-07T00:47:12.988Z,95588.29
2018-10-07T00:49:41.671Z,95586.14
2018-10-07T00:52:10.410Z,95578.94
2018-10-07T00:54:40.174Z,95579.46
2018-10-07T00:57:08.923Z,95577.83
2018-10-07T00:59:37.625Z,95580.80
2018-10-07T01:02:06.378Z,95582.34
2018-10-07T01:04:35.075Z,95575.97
2018-10-07T01:07:03.787Z,95577.00
2018-10-07T01:09:32.503Z,95571.15
2018-10-07T01:12:01.232Z,95574.00
2018-10-07T01:14:29.929Z,95567.33
2018-10-07T01:16:58.632Z,95571.33
2018-10-07T01:19:27.334Z,95568.88
2018-10-07T01:21:56.683Z,95568.88
2018-10-07T01:24:25.397Z,95563.02
2018-10-07T01:26:54.100Z,95565.39
2018-10-07T01:29:23.880Z,95566.20
2018-10-07T01:31:52.599Z,95555.70
2018-10-07T01:34:22.906Z,95560.23
2018-10-07T01:36:51.599Z,95552.73
2018-10-07T01:39:20.302Z,95553.55
2018-10-07T01:41:49.042Z,95553.55
2018-10-07T01:44:17.728Z,95558.89
2018-10-07T01:46:47.210Z,95557.78
2018-10-07T01:49:15.889Z,95552.44
2018-10-07T01:51:44.571Z,95546.76
2018-10-07T01:54:13.265Z,95546.76
2018-10-07T01:56:41.946Z,95550.98
2018-10-07T01:59:11.210Z,95544.19
2018-10-07T02:01:39.884Z,95546.23
2018-10-07T02:04:08.632Z,95545.20
2018-10-07T02:06:37.309Z,95535.36
2018-10-07T02:09:07.814Z,95540.70
2018-10-07T02:11:36.802Z,95542.22
2018-10-07T02:14:05.594Z,95542.92
2018-10-07T02:16:34.814Z,95539.44
2018-10-07T02:19:03.693Z,95534.40
2018-10-07T02:21:32.534Z,95535.43
2018-10-07T02:24:04.756Z,95537.06
2018-10-07T02:26:33.462Z,95539.85
2018-10-07T02:29:02.162Z,95537.70
2018-10-07T02:31:30.855Z,95532.17
2018-10-07T02:33:59.547Z,95530.51
2018-10-07T02:36:31.851Z,95533.52
2018-10-07T02:39:00.531Z,95526.02
2018-10-07T02:41:29.806Z,95529.17
2018-10-07T02:43:59.601Z,95525.17
2018-10-07T02:46:28.308Z,95522.20
2018-10-07T02:48:58.616Z,95528.88
2018-10-07T02:51:27.350Z,95526.91
2018-10-07T02:53:56.073Z,95521.56
2018-10-07T02:56:24.817Z,95524.05
2018-10-07T02:58:53.577Z,95526.39
2018-10-07T03:01:22.509Z,95524.23
2018-10-07T03:03:51.205Z,95531.94
2018-10-07T03:06:19.889Z,95532.77
2018-10-07T03:08:48.577Z,95527.13
2018-10-07T03:11:17.284Z,95526.60
2018-10-07T03:13:46.222Z,95532.64
2018-10-07T03:16:14.904Z,95524.63
2018-10-07T03:18:45.146Z,95522.78
2018-10-07T03:21:13.843Z,95518.78
2018-10-07T03:23:42.565Z,95525.78
2018-10-07T03:26:12.107Z,95522.30
2018-10-07T03:28:40.800Z,95516.63
2018-10-07T03:31:11.507Z,95519.63
2018-10-07T03:33:40.207Z,95515.62
2018-10-07T03:36:08.917Z,95519.63
2018-10-07T03:38:37.612Z,95518.69
2018-10-07T03:41:06.394Z,95510.47
2018-10-07T03:43:35.670Z,95517.36
2018-10-07T03:46:04.352Z,95512.84
2018-10-07T03:48:33.052Z,95520.63
2018-10-07T03:51:01.745Z,95510.98
2018-10-07T03:53:30.454Z,95507.38
2018-10-07T03:55:59.179Z,95513.84
2018-10-07T03:58:27.867Z,95512.20
2018-10-07T04:00:56.583Z,95503.37
2018-10-07T04:03:25.279Z,95508.20
2018-10-07T04:05:53.971Z,95500.38
2018-10-07T04:08:22.716Z,95505.23
2018-10-07T04:10:51.444Z,95504.37
2018-10-07T04:13:20.164Z,95502.04
2018-10-07T04:15:48.928Z,95505.23
2018-10-07T04:18:17.876Z,95495.77
2018-10-07T04:20:46.823Z,95501.41
2018-10-07T04:23:15.524Z,95498.73
2018-10-07T04:25:44.221Z,95503.78
2018-10-07T04:28:12.927Z,95503.26
2018-10-07T04:30:41.690Z,95501.63
2018-10-07T04:33:10.643Z,95502.11
2018-10-07T04:35:39.361Z,95496.77
2018-10-07T04:38:08.041Z,95499.14
2018-10-07T04:40:36.772Z,95503.14
2018-10-07T04:43:05.492Z,95497.50
2018-10-07T04:45:35.234Z,95504.48
2018-10-07T04:48:03.973Z,95496.66
2018-10-07T04:50:32.658Z,95500.47
2018-10-07T04:53:01.361Z,95506.63
2018-10-07T04:55:30.057Z,95505.30
2018-10-07T04:58:00.662Z,95509.81
2018-10-07T05:00:30.560Z,95509.52
2018-10-07T05:02:59.924Z,95515.97
2018-10-07T05:05:29.442Z,95513.52
2018-10-07T05:07:58.137Z,95519.16
2018-10-07T05:10:50.788Z,95517.83
2018-10-07T05:13:22.295Z,95517.71
2018-10-07T05:15:56.583Z,95522.69
2018-10-07T05:18:25.514Z,95518.51
2018-10-07T05:20:54.758Z,95525.84
2018-10-07T05:23:23.403Z,95522.11
2018-10-07T05:25:52.078Z,95521.34
2018-10-07T05:28:24.057Z,95535.50
2018-10-07T05:30:52.822Z,95529.42
2018-10-07T05:33:21.580Z,95526.02
2018-10-07T05:35:50.261Z,95524.70
2018-10-07T05:38:18.939Z,95527.23
2018-10-07T05:40:47.681Z,95523.05
2018-10-07T05:43:16.384Z,95530.29
2018-10-07T05:45:45.095Z,95524.02
2018-10-07T05:48:13.800Z,95521.73
2018-10-07T05:50:42.562Z,95522.94
2018-10-07T05:53:12.252Z,95521.48
2018-10-07T05:55:41.079Z,95527.50
2018-10-07T05:58:09.771Z,95519.11
2018-10-07T06:00:38.770Z,95522.05
2018-10-07T06:03:13.911Z,95520.69
2018-10-07T06:05:43.862Z,95512.16
2018-10-07T06:08:13.342Z,95511.83
2018-10-07T06:10:42.068Z,95517.45
2018-10-07T06:13:10.782Z,95516.26
2018-10-07T06:15:40.239Z,95517.64
2018-10-07T06:18:08.931Z,95521.65
2018-10-07T06:20:37.660Z,95516.78
2018-10-07T06:23:06.338Z,95515.32
2018-10-07T06:25:35.077Z,95516.02
2018-10-07T06:28:03.774Z,95513.75
2018-10-07T06:30:32.515Z,95510.48
2018-10-07T06:33:02.135Z,95510.78
2018-10-07T06:35:30.838Z,95512.95
2018-10-07T06:37:59.542Z,95511.08
2018-10-07T06:40:28.245Z,95517.30
2018-10-07T06:42:56.953Z,95515.45
2018-10-07T06:45:26.493Z,95509.42
2018-10-07T06:47:55.412Z,95519.53
2018-10-07T06:50:24.139Z,95518.41
2018-10-07T06:52:52.829Z,95518.12
2018-10-07T06:55:21.555Z,95511.58
2018-10-07T06:57:50.528Z,95511.17
2018-10-07T07:00:19.234Z,95511.78
2018-10-07T07:02:47.930Z,95509.44
2018-10-07T07:05:16.599Z,95504.03
2018-10-07T07:07:45.294Z,95508.11
2018-10-07T07:10:14.455Z,95506.84
2018-10-07T07:12:43.190Z,95504.44
2018-10-07T07:15:12.957Z,95504.66
2018-10-07T07:17:41.666Z,95499.47
2018-10-07T07:20:10.431Z,95504.08
2018-10-07T07:22:39.395Z,95503.53
2018-10-07T07:25:08.082Z,95505.72
2018-10-07T07:27:36.785Z,95496.77
2018-10-07T07:30:08.672Z,95493.81
2018-10-07T07:32:37.368Z,95492.62
2018-10-07T07:35:06.143Z,95494.07
2018-10-07T07:37:34.891Z,95490.20
2018-10-07T07:40:03.572Z,95492.44
2018-10-07T07:42:32.338Z,95492.66
2018-10-07T07:45:01.033Z,95492.05
2018-10-07T07:47:29.767Z,95489.98
2018-10-07T07:49:58.462Z,95488.75
2018-10-07T07:52:27.125Z,95493.20
2018-10-07T07:54:55.822Z,95491.53
2018-10-07T07:57:24.513Z,95484.55
2018-10-07T07:59:53.213Z,95486.19
2018-10-07T08:02:21.913Z,95476.94
2018-10-07T08:04:50.595Z,95477.16
2018-10-07T08:07:19.294Z,95473.97
2018-10-07T08:09:47.962Z,95472.11
2018-10-07T08:12:16.914Z,95473.03
2018-10-07T08:14:45.612Z,95472.43
2018-10-07T08:17:15.280Z,95471.39
2018-10-07T08:19:43.972Z,95467.07
2018-10-07T08:22:12.689Z,95467.28
2018-10-07T08:24:43.555Z,95461.13
2018-10-07T08:27:12.227Z,95457.73
2018-10-07T08:29:41.006Z,95450.42
2018-10-07T08:32:09.647Z,95452.27
2018-10-07T08:34:38.387Z,95449.58
2018-10-07T08:37:09.099Z,95445.66
2018-10-07T08:39:37.815Z,95443.31
2018-10-07T08:42:06.536Z,95439.90
2018-10-07T08:44:35.246Z,95441.34
2018-10-07T08:47:04.151Z,95442.77
2018-10-07T08:49:33.243Z,95445.45
2018-10-07T08:52:01.969Z,95437.53
2018-10-07T08:54:30.811Z,95438.02
2018-10-07T08:56:59.520Z,95434.63
2018-10-07T08:59:28.196Z,95436.81
2018-10-07T09:01:57.707Z,95425.88
2018-10-07T09:04:26.416Z,95430.39
2018-10-07T09:06:55.108Z,95421.25
2018-10-07T09:09:23.808Z,95417.44
2018-10-07T09:11:52.488Z,95419.08
2018-10-07T09:14:22.534Z,95414.77
2018-10-07T09:16:51.234Z,95412.19
2018-10-07T09:19:19.932Z,95404.55
2018-10-07T09:21:50.018Z,95398.48
